Ghotki Weather



Ghotki's Current Weather

Temprature 11.78o clear sky

clear sky

Rain: 0 %

Min Temprature11.78o
Max Temprature11.78o
Humidity35
Wind Speed4.91 m/h
Sun Rise07:14:48
Sun Set17:51:02
Current Time: 18-Jan-2021 05:35:56
Lat/Lon: 28.006, 69.3161




Ghotki's Geo Location



Ghotki's Weather Forecast

Time Overall Temp Min Temp Max Temp Humidity Wind Speed Rain
18-Jan-2021 (Mon)
08:00:00 clear sky 12.180 12.180 12.310 35 5.09 m/h 0 %
11:00:00 clear sky 19.900 19.900 22.060 22 7.04 m/h 0 %
14:00:00 clear sky 25.470 25.470 26.390 15 6.18 m/h 0 %
17:00:00 clear sky 24.400 24.400 24.500 16 5.29 m/h 0 %
20:00:00 clear sky 16.860 16.860 16.860 27 4.22 m/h 0 %
23:00:00 clear sky 14.400 14.400 14.400 32 4.04 m/h 0 %
19-Jan-2021 (Tue)
02:00:00 clear sky 12.630 12.630 12.630 37 3.97 m/h 0 %
05:00:00 clear sky 11.600 11.600 11.600 41 3.59 m/h 0 %
08:00:00 clear sky 12.060 12.060 12.060 40 2.82 m/h 0 %
11:00:00 clear sky 21.620 21.620 21.620 21 2.85 m/h 0 %
14:00:00 clear sky 25.740 25.740 25.740 15 1.73 m/h 0 %
17:00:00 clear sky 25.250 25.250 25.250 16 2.59 m/h 0 %
20:00:00 clear sky 16.270 16.270 16.270 27 2.61 m/h 0 %
23:00:00 clear sky 13.130 13.130 13.130 34 1.22 m/h 0 %
20-Jan-2021 (Wed)
02:00:00 clear sky 13.420 13.420 13.420 33 1.83 m/h 0 %
05:00:00 clear sky 12.640 12.640 12.640 35 1.56 m/h 0 %
08:00:00 clear sky 14.680 14.680 14.680 32 1.39 m/h 0 %
11:00:00 clear sky 24.440 24.440 24.440 17 1.89 m/h 0 %
14:00:00 clear sky 28.200 28.200 28.200 14 2.29 m/h 0 %
17:00:00 clear sky 27.250 27.250 27.250 15 1.43 m/h 0 %
20:00:00 clear sky 16.260 16.260 16.260 30 0.65 m/h 0 %
23:00:00 clear sky 15.270 15.270 15.270 32 0.04 m/h 0 %
21-Jan-2021 (Thu)
02:00:00 clear sky 15.040 15.040 15.040 32 1.51 m/h 0 %
05:00:00 clear sky 13.200 13.200 13.200 36 1.13 m/h 0 %
08:00:00 clear sky 15.770 15.770 15.770 31 0.85 m/h 0 %
11:00:00 clear sky 26.200 26.200 26.200 16 3.06 m/h 0 %
14:00:00 clear sky 30.030 30.030 30.030 13 5 m/h 0 %
17:00:00 clear sky 29.020 29.020 29.020 14 4.25 m/h 0 %
20:00:00 clear sky 21.710 21.710 21.710 22 3.27 m/h 0 %
23:00:00 clear sky 19.510 19.510 19.510 25 3.45 m/h 0 %
22-Jan-2021 (Fri)
02:00:00 clear sky 17.760 17.760 17.760 44 3.07 m/h 0 %
05:00:00 clear sky 15.240 15.240 15.240 55 2.17 m/h 0 %
08:00:00 clear sky 15.580 15.580 15.580 48 0.95 m/h 0 %
11:00:00 clear sky 25.000 25.000 25.000 26 3.59 m/h 0 %
14:00:00 clear sky 29.510 29.510 29.510 14 5.69 m/h 0 %
17:00:00 clear sky 27.680 27.680 27.680 14 5.59 m/h 0 %
20:00:00 clear sky 19.620 19.620 19.620 19 4.77 m/h 0 %
23:00:00 clear sky 17.190 17.190 17.190 21 4.84 m/h 0 %
23-Jan-2021 (Sat)
02:00:00 clear sky 15.380 15.380 15.380 24 5.27 m/h 0 %
05:00:00 clear sky 15.520 15.520 15.520 24 6.33 m/h 0 %

Famous Cities (60)